Time;durP1;ratioP1;P1;durP2;ratioP2;P2;SDS_P1;SDS_P2;PMS_P1;PMS_P2;Temp;Humidity;BMP_temperature;BMP_pressure;BME280_temperature;BME280_humidity;BME280_pressure;Samples;Min_cycle;Max_cycle;Signal;HPM_P1;HPM_P2
2022/07/15 00:00:29;;;;;;;;;;;;;;;19.25;43.45;96773.00;4955377;29;20065;-76
2022/07/15 00:02:55;;;;;;;;;;;;;;;19.22;43.41;96776.19;4955025;29;20485;-76
2022/07/15 00:05:21;;;;;;;;;;;;;;;19.20;43.51;96773.00;4954815;29;19963;-76
2022/07/15 00:07:47;;;;;;;;;;;;;;;19.17;43.97;96767.41;4954894;29;20429;-75
2022/07/15 00:10:15;;;;;;;;;;;;;;;19.17;43.64;96772.72;4957932;28;19964;-76
2022/07/15 00:12:42;;;;;;;;;;;;;;;19.16;43.98;96773.81;4958499;29;19994;-76
2022/07/15 00:15:09;;;;;;;;;;;;;;;19.12;44.22;96770.06;4958188;29;19958;-76
2022/07/15 00:17:34;;;;;;;;;;;;;;;19.12;44.00;96772.75;4958411;29;19998;-76
2022/07/15 00:20:01;;;;;;;;;;;;;;;19.14;44.25;96771.41;4958160;29;19983;-77
2022/07/15 00:22:27;;;;;;;;;;;;;;;19.14;44.10;96771.41;4958158;29;20467;-78
2022/07/15 00:24:52;;;;;;;;;;;;;;;19.14;44.34;96771.41;4958386;29;19962;-75
2022/07/15 00:27:19;;;;;;;;;;;;;;;19.13;44.11;96766.34;4957548;28;20005;-75
2022/07/15 00:29:44;;;;;;;;;;;;;;;19.13;43.76;96775.13;4958096;29;19964;-75
2022/07/15 00:32:10;;;;;;;;;;;;;;;19.13;44.22;96777.81;4958106;29;19964;-74
2022/07/15 00:34:36;;;;;;;;;;;;;;;19.09;44.44;96776.72;4957987;29;20311;-74
2022/07/15 00:37:03;;;;;;;;;;;;;;;19.05;44.09;96779.09;4957628;29;19986;-75
2022/07/15 00:39:29;;;;;;;;;;;;;;;19.01;44.37;96778.03;4957998;29;19957;-73
2022/07/15 00:41:54;;;;;;;;;;;;;;;18.98;44.35;96777.75;4957547;28;20030;-73
2022/07/15 00:44:20;;;;;;;;;;;;;;;18.97;44.13;96781.50;4958211;29;20019;-74
2022/07/15 00:46:47;;;;;;;;;;;;;;;18.94;44.60;96787.31;4957715;29;20013;-74
2022/07/15 00:49:13;;;;;;;;;;;;;;;18.91;44.45;96783.34;4957673;29;19967;-76
2022/07/15 00:52:00;;;;;;;;;;;;;;;18.87;44.56;96779.59;4957561;29;19968;-75
2022/07/15 00:54:27;;;;;;;;;;;;;;;18.85;44.68;96781.72;4957881;29;19967;-75
2022/07/15 00:56:56;;;;;;;;;;;;;;;18.84;44.75;96788.13;4957415;29;19974;-75
2022/07/15 00:59:24;;;;;;;;;;;;;;;18.82;44.87;96774.28;4957493;29;19959;-75
2022/07/15 01:01:51;;;;;;;;;;;;;;;18.79;44.52;96778.28;4957529;29;19967;-75
2022/07/15 01:04:17;;;;;;;;;;;;;;;18.77;45.29;96779.53;4956167;29;19979;-75
2022/07/15 01:06:43;;;;;;;;;;;;;;;18.74;45.42;96778.22;4957451;29;19967;-75
2022/07/15 01:09:09;;;;;;;;;;;;;;;18.71;45.29;96781.41;4957650;29;19959;-76
2022/07/15 01:11:36;;;;;;;;;;;;;;;18.67;45.40;96778.47;4957116;28;19965;-75
2022/07/15 01:14:02;;;;;;;;;;;;;;;18.63;45.67;96781.91;4957314;29;19988;-75
2022/07/15 01:16:28;;;;;;;;;;;;;;;18.59;45.61;96786.16;4957318;29;20035;-75
2022/07/15 01:18:54;;;;;;;;;;;;;;;18.56;45.54;96784.00;4957081;29;19991;-75
2022/07/15 01:21:20;;;;;;;;;;;;;;;18.51;45.88;96789.31;4956410;28;19997;-75
2022/07/15 01:23:46;;;;;;;;;;;;;;;18.45;45.91;96793.78;4957031;29;19965;-75
2022/07/15 01:26:12;;;;;;;;;;;;;;;18.38;46.29;96796.69;4956839;29;19990;-75
2022/07/15 01:28:39;;;;;;;;;;;;;;;18.33;46.72;96807.28;4956443;28;19972;-76
2022/07/15 01:31:05;;;;;;;;;;;;;;;18.26;46.79;96802.19;4956939;28;20452;-75
2022/07/15 01:33:31;;;;;;;;;;;;;;;18.20;46.79;96803.22;4956725;29;19964;-75
2022/07/15 01:35:58;;;;;;;;;;;;;;;18.16;46.93;96801.34;4956779;29;19980;-75
2022/07/15 01:38:24;;;;;;;;;;;;;;;18.10;47.05;96799.72;4957078;29;20413;-75
2022/07/15 01:40:50;;;;;;;;;;;;;;;18.04;47.15;96802.34;4956609;29;20434;-74
2022/07/15 01:43:16;;;;;;;;;;;;;;;17.98;47.52;96802.59;4956403;29;19956;-75
2022/07/15 01:45:42;;;;;;;;;;;;;;;17.93;47.51;96806.00;4955512;29;19964;-75
2022/07/15 01:49:21;;;;;;;;;;;;;;;17.87;47.81;96801.72;4957265;28;19977;-74
2022/07/15 01:50:55;;;;;;;;;;;;;;;17.79;47.83;96800.31;4956811;29;19972;-75
2022/07/15 01:53:21;;;;;;;;;;;;;;;17.74;48.05;96804.78;4955546;29;19984;-75
2022/07/15 01:55:47;;;;;;;;;;;;;;;17.68;47.95;96800.47;4956636;29;19965;-75
2022/07/15 01:58:13;;;;;;;;;;;;;;;17.60;48.21;96801.78;4956125;29;20084;-75
2022/07/15 02:00:38;;;;;;;;;;;;;;;17.55;48.91;96799.06;4955690;29;20475;-75
2022/07/15 02:03:04;;;;;;;;;;;;;;;17.52;48.67;96807.53;4956271;29;20379;-75
2022/07/15 02:05:30;;;;;;;;;;;;;;;17.48;48.70;96801.13;4956549;29;19975;-75
2022/07/15 02:07:56;;;;;;;;;;;;;;;17.44;48.88;96798.19;4956381;28;20006;-74
2022/07/15 02:10:22;;;;;;;;;;;;;;;17.38;48.88;96797.34;4955086;29;20004;-76
2022/07/15 02:12:48;;;;;;;;;;;;;;;17.33;49.67;96799.16;4956307;29;20027;-75
2022/07/15 02:15:13;;;;;;;;;;;;;;;17.30;49.49;96799.66;4956166;29;20041;-75
2022/07/15 02:17:39;;;;;;;;;;;;;;;17.24;49.34;96790.88;4955888;29;19974;-75
2022/07/15 02:20:05;;;;;;;;;;;;;;;17.19;49.50;96788.97;4956343;29;19986;-75
2022/07/15 02:22:31;;;;;;;;;;;;;;;17.16;49.87;96792.13;4955927;29;19962;-75
2022/07/15 02:24:57;;;;;;;;;;;;;;;17.14;49.61;96782.84;4955954;29;19957;-74
2022/07/15 02:27:23;;;;;;;;;;;;;;;17.10;49.50;96782.53;4955976;29;20391;-75
2022/07/15 02:29:49;;;;;;;;;;;;;;;17.07;49.43;96783.00;4956115;29;19962;-75
2022/07/15 02:32:15;;;;;;;;;;;;;;;17.03;49.52;96788.03;4955322;28;19963;-75
2022/07/15 02:34:41;;;;;;;;;;;;;;;17.00;49.93;96785.06;4955700;29;20027;-74
2022/07/15 02:37:06;;;;;;;;;;;;;;;16.95;50.02;96785.03;4955787;29;20067;-76
2022/07/15 02:39:32;;;;;;;;;;;;;;;16.91;49.80;96776.00;4956022;29;19973;-73
2022/07/15 02:41:58;;;;;;;;;;;;;;;16.84;50.27;96779.63;4955744;29;19965;-74
2022/07/15 02:44:24;;;;;;;;;;;;;;;16.81;50.62;96788.06;4955996;29;20451;-74
2022/07/15 02:46:50;;;;;;;;;;;;;;;16.78;51.07;96785.09;4956048;29;20010;-74
2022/07/15 02:49:16;;;;;;;;;;;;;;;16.74;51.19;96789.28;4955634;29;20044;-74
2022/07/15 02:51:42;;;;;;;;;;;;;;;16.70;51.14;96788.19;4955094;29;20007;-74
2022/07/15 02:54:08;;;;;;;;;;;;;;;16.66;51.41;96787.09;4955602;29;20337;-74
2022/07/15 02:56:34;;;;;;;;;;;;;;;16.59;51.31;96782.78;4955411;29;19976;-74
2022/07/15 02:59:00;;;;;;;;;;;;;;;16.54;51.61;96782.69;4955520;29;20423;-74
2022/07/15 03:01:26;;;;;;;;;;;;;;;16.50;51.48;96783.44;4955488;29;20001;-74
2022/07/15 03:03:53;;;;;;;;;;;;;;;16.44;51.79;96788.69;4955927;29;19968;-74
2022/07/15 03:06:19;;;;;;;;;;;;;;;16.39;51.63;96793.91;4955324;29;19963;-74
2022/07/15 03:08:46;;;;;;;;;;;;;;;16.33;52.25;96794.91;4955401;29;20039;-74
2022/07/15 03:11:12;;;;;;;;;;;;;;;16.27;51.93;96800.38;4955288;29;19963;-74
2022/07/15 03:13:38;;;;;;;;;;;;;;;16.20;52.27;96804.00;4955518;29;19969;-74
2022/07/15 03:16:04;;;;;;;;;;;;;;;16.15;52.69;96805.78;4954562;29;19959;-74
2022/07/15 03:18:30;;;;;;;;;;;;;;;16.11;53.10;96802.84;4955318;29;19960;-74
2022/07/15 03:20:56;;;;;;;;;;;;;;;16.08;53.02;96797.22;4955042;29;20376;-74
2022/07/15 03:23:22;;;;;;;;;;;;;;;16.05;52.98;96790.56;4955126;29;19962;-74
2022/07/15 03:25:48;;;;;;;;;;;;;;;16.02;52.99;96807.75;4955224;29;19981;-74
2022/07/15 03:28:14;;;;;;;;;;;;;;;15.97;53.47;96801.56;4955247;29;20019;-74
2022/07/15 03:30:40;;;;;;;;;;;;;;;15.93;53.52;96798.59;4955254;29;20403;-74
2022/07/15 03:33:05;;;;;;;;;;;;;;;15.89;53.21;96796.69;4955181;29;20407;-74
2022/07/15 03:35:31;;;;;;;;;;;;;;;15.82;52.91;96791.56;4955144;29;20035;-73
2022/07/15 03:37:57;;;;;;;;;;;;;;;15.78;53.57;96806.31;4955113;29;19977;-75
2022/07/15 03:40:23;;;;;;;;;;;;;;;15.75;53.93;96797.03;4954489;28;20007;-74
2022/07/15 03:42:49;;;;;;;;;;;;;;;15.75;53.73;96794.41;4955174;28;19993;-74
2022/07/15 03:45:15;;;;;;;;;;;;;;;15.77;53.88;96802.06;4958229;29;20374;-74
2022/07/15 03:47:40;;;;;;;;;;;;;;;15.77;53.71;96802.06;4958642;29;20015;-74
2022/07/15 03:50:06;;;;;;;;;;;;;;;15.76;53.77;96800.47;4957560;29;20012;-74
2022/07/15 03:52:32;;;;;;;;;;;;;;;15.77;53.53;96807.34;4958766;29;19971;-74
2022/07/15 03:54:58;;;;;;;;;;;;;;;15.78;54.39;96803.69;4958568;29;19958;-74
2022/07/15 03:57:24;;;;;;;;;;;;;;;15.77;53.59;96807.34;4958710;29;20061;-73
2022/07/15 03:59:50;;;;;;;;;;;;;;;15.77;54.10;96808.19;4958787;29;19965;-73
2022/07/15 04:02:16;;;;;;;;;;;;;;;15.78;54.42;96809.75;4958473;29;19961;-74
2022/07/15 04:04:42;;;;;;;;;;;;;;;15.79;54.47;96810.56;4958780;29;19964;-73
2022/07/15 04:07:08;;;;;;;;;;;;;;;15.79;54.59;96807.91;4958394;29;19959;-74
2022/07/15 04:09:34;;;;;;;;;;;;;;;15.78;54.71;96809.75;4958398;29;19994;-74
2022/07/15 04:12:00;;;;;;;;;;;;;;;15.77;54.93;96808.19;4958544;29;20418;-74
2022/07/15 04:14:26;;;;;;;;;;;;;;;15.75;54.79;96818.19;4958227;29;19970;-74
2022/07/15 04:16:52;;;;;;;;;;;;;;;15.72;55.26;96817.88;4957193;29;20064;-73
2022/07/15 04:19:18;;;;;;;;;;;;;;;15.70;54.85;96814.63;4958178;29;19964;-73
2022/07/15 04:21:44;;;;;;;;;;;;;;;15.65;55.21;96812.72;4958301;29;20052;-73
2022/07/15 04:24:10;;;;;;;;;;;;;;;15.62;55.18;96818.47;4958252;29;19968;-73
2022/07/15 04:26:37;;;;;;;;;;;;;;;15.64;55.27;96813.75;4958098;29;19987;-74
2022/07/15 04:29:03;;;;;;;;;;;;;;;15.66;54.66;96809.00;4958210;29;19960;-74
2022/07/15 04:31:29;;;;;;;;;;;;;;;15.69;54.91;96805.91;4957948;29;20013;-74
2022/07/15 04:33:55;;;;;;;;;;;;;;;15.74;54.70;96805.22;4957216;28;20342;-73
2022/07/15 04:36:20;;;;;;;;;;;;;;;15.77;55.16;96810.00;4957799;29;19961;-74
2022/07/15 04:38:46;;;;;;;;;;;;;;;15.78;54.90;96807.13;4957899;28;19969;-73
2022/07/15 04:41:12;;;;;;;;;;;;;;;15.81;54.83;96811.13;4957691;29;21111;-74
2022/07/15 04:43:38;;;;;;;;;;;;;;;15.84;55.11;96813.28;4958084;29;19985;-74
2022/07/15 04:46:04;;;;;;;;;;;;;;;15.89;55.27;96818.66;4957693;29;20444;-73
2022/07/15 04:51:14;;;;;;;;;;;;;;;16.03;54.87;96821.75;4951226;29;19967;-74
2022/07/15 04:53:40;;;;;;;;;;;;;;;16.13;54.86;96821.13;4957742;29;19971;-74
2022/07/15 04:56:06;;;;;;;;;;;;;;;16.24;54.53;96818.34;4956357;28;19973;-74
2022/07/15 04:58:32;;;;;;;;;;;;;;;16.40;53.72;96815.91;4957656;29;20084;-74
2022/07/15 05:00:58;;;;;;;;;;;;;;;16.56;52.45;96798.34;4957749;29;19965;-73
2022/07/15 05:03:24;;;;;;;;;;;;;;;16.73;53.82;96811.50;4957295;29;19993;-74
2022/07/15 05:05:50;;;;;;;;;;;;;;;16.88;53.00;96805.63;4957405;29;19992;-74
2022/07/15 05:08:16;;;;;;;;;;;;;;;17.03;53.00;96809.22;4957335;29;20318;-74
2022/07/15 05:10:41;;;;;;;;;;;;;;;17.24;52.48;96812.09;4957380;29;20422;-74
2022/07/15 05:13:07;;;;;;;;;;;;;;;17.42;52.54;96813.53;4957462;29;19965;-73
2022/07/15 05:15:34;;;;;;;;;;;;;;;17.64;51.95;96808.97;4957479;29;19963;-74
2022/07/15 05:17:59;;;;;;;;;;;;;;;17.87;51.81;96809.69;4957126;29;19987;-74
2022/07/15 05:20:26;;;;;;;;;;;;;;;18.11;51.42;96807.44;4957284;29;19995;-74
2022/07/15 05:22:52;;;;;;;;;;;;;;;18.38;50.77;96809.97;4957244;29;19973;-74
2022/07/15 05:25:18;;;;;;;;;;;;;;;18.64;50.53;96810.06;4957177;29;19965;-74
2022/07/15 05:27:44;;;;;;;;;;;;;;;18.91;49.78;96803.81;4957249;29;20002;-74
2022/07/15 05:30:12;;;;;;;;;;;;;;;19.16;49.44;96795.06;4957171;29;19967;-74
2022/07/15 05:32:38;;;;;;;;;;;;;;;19.41;48.93;96800.41;4957003;29;19972;-74
2022/07/15 05:35:04;;;;;;;;;;;;;;;19.66;48.82;96799.59;4957017;29;20340;-74
2022/07/15 05:37:30;;;;;;;;;;;;;;;19.91;47.59;96789.22;4955883;29;20353;-74
2022/07/15 05:39:57;;;;;;;;;;;;;;;20.14;46.10;96783.31;4957487;29;19993;-74
2022/07/15 05:42:23;;;;;;;;;;;;;;;20.39;46.31;96789.63;4956802;29;19968;-74
2022/07/15 05:44:49;;;;;;;;;;;;;;;20.63;46.26;96787.94;4956794;29;19967;-74
2022/07/15 05:47:16;;;;;;;;;;;;;;;20.89;45.46;96790.47;4956525;29;20010;-74
2022/07/15 05:49:41;;;;;;;;;;;;;;;21.16;44.54;96789.25;4956465;29;19965;-74
2022/07/15 05:52:08;;;;;;;;;;;;;;;21.36;43.29;96785.66;4956733;29;19996;-75
2022/07/15 05:54:33;;;;;;;;;;;;;;;21.54;43.61;96789.53;4956701;29;19966;-74
2022/07/15 05:56:59;;;;;;;;;;;;;;;21.68;41.79;96785.13;4956226;29;20438;-74
2022/07/15 05:59:25;;;;;;;;;;;;;;;21.75;40.69;96788.25;4956787;29;20419;-74
2022/07/15 06:01:51;;;;;;;;;;;;;;;21.83;42.74;96809.03;4956267;29;20013;-74
2022/07/15 06:04:17;;;;;;;;;;;;;;;21.98;42.29;96805.41;4956429;29;19977;-74
2022/07/15 06:06:43;;;;;;;;;;;;;;;22.13;41.06;96795.66;4956083;28;19963;-74
2022/07/15 06:09:09;;;;;;;;;;;;;;;21.98;40.81;96792.06;4956168;29;19984;-74
2022/07/15 06:11:35;;;;;;;;;;;;;;;21.89;42.14;96807.91;4956663;29;20012;-74
2022/07/15 06:14:01;;;;;;;;;;;;;;;21.72;42.39;96804.84;4956086;29;20069;-74
2022/07/15 06:16:27;;;;;;;;;;;;;;;21.73;42.68;96806.44;4956282;29;20414;-75
2022/07/15 06:18:53;;;;;;;;;;;;;;;21.94;42.22;96801.69;4956198;29;19983;-74
2022/07/15 06:21:19;;;;;;;;;;;;;;;22.20;42.43;96812.16;4954856;29;19982;-74
2022/07/15 06:23:45;;;;;;;;;;;;;;;22.46;42.67;96813.47;4956333;29;19967;-74
2022/07/15 06:26:11;;;;;;;;;;;;;;;22.73;41.89;96806.72;4956208;29;19968;-74
2022/07/15 06:28:36;;;;;;;;;;;;;;;23.00;40.69;96797.28;4956011;29;19968;-74
2022/07/15 06:31:02;;;;;;;;;;;;;;;23.23;40.04;96799.13;4955832;29;19965;-75
2022/07/15 06:33:28;;;;;;;;;;;;;;;23.40;39.97;96792.44;4956002;29;20437;-74
2022/07/15 06:35:54;;;;;;;;;;;;;;;23.56;40.01;96792.97;4956278;29;19971;-74
2022/07/15 06:38:21;;;;;;;;;;;;;;;23.69;39.46;96789.56;4955731;29;20529;-74
2022/07/15 06:40:46;;;;;;;;;;;;;;;23.81;38.99;96791.78;4955872;29;19993;-74
2022/07/15 06:43:13;;;;;;;;;;;;;;;23.83;36.50;96786.94;4955806;29;20415;-74
2022/07/15 06:45:39;;;;;;;;;;;;;;;23.65;36.36;96791.25;4955959;29;19966;-74
2022/07/15 06:48:04;;;;;;;;;;;;;;;23.57;36.49;96782.00;4955969;29;19968;-74
2022/07/15 06:50:30;;;;;;;;;;;;;;;23.53;37.04;96794.38;4955667;29;19958;-74
2022/07/15 06:52:56;;;;;;;;;;;;;;;23.49;36.37;96788.78;4955932;29;19999;-74
2022/07/15 06:55:22;;;;;;;;;;;;;;;23.44;38.21;96794.25;4955636;29;20012;-74
2022/07/15 06:57:48;;;;;;;;;;;;;;;23.53;36.91;96788.22;4955703;29;20383;-74
2022/07/15 07:00:15;;;;;;;;;;;;;;;23.55;36.40;96784.16;4955841;29;19975;-74
2022/07/15 07:02:41;;;;;;;;;;;;;;;23.67;36.88;96789.84;4954490;29;20437;-75
2022/07/15 07:05:08;;;;;;;;;;;;;;;23.57;36.04;96779.31;4955298;29;19962;-74
2022/07/15 07:07:34;;;;;;;;;;;;;;;23.53;33.61;96770.28;4955689;29;19965;-74
2022/07/15 07:10:00;;;;;;;;;;;;;;;23.57;33.10;96771.28;4955523;29;20335;-74
2022/07/15 07:12:26;;;;;;;;;;;;;;;23.74;35.19;96775.28;4955202;29;19957;-74
2022/07/15 07:14:53;;;;;;;;;;;;;;;23.66;29.82;96764.16;4955393;29;20393;-75
2022/07/15 07:17:19;;;;;;;;;;;;;;;23.66;33.53;96782.88;4955075;29;19971;-74
2022/07/15 07:19:45;;;;;;;;;;;;;;;23.76;35.24;96789.19;4957586;28;19972;-74
2022/07/15 07:22:11;;;;;;;;;;;;;;;24.00;34.80;96783.69;4959526;29;19965;-75
2022/07/15 07:24:37;;;;;;;;;;;;;;;24.21;34.86;96784.91;4959614;29;19973;-75
2022/07/15 07:27:04;;;;;;;;;;;;;;;24.43;34.08;96773.47;4959392;29;20007;-74
2022/07/15 07:29:30;;;;;;;;;;;;;;;24.55;34.09;96781.06;4959396;29;19958;-75
2022/07/15 07:31:56;;;;;;;;;;;;;;;24.62;33.51;96773.38;4959393;29;20027;-74
2022/07/15 07:34:22;;;;;;;;;;;;;;;24.50;32.27;96778.47;4959211;29;19962;-75
2022/07/15 07:36:48;;;;;;;;;;;;;;;24.47;33.30;96777.13;4959405;29;19974;-75
2022/07/15 07:39:14;;;;;;;;;;;;;;;24.57;31.28;96778.88;4959268;29;19984;-75
2022/07/15 07:41:40;;;;;;;;;;;;;;;24.62;33.19;96789.47;4958012;29;19974;-74
2022/07/15 07:44:06;;;;;;;;;;;;;;;24.68;34.31;96782.91;4959018;29;19973;-75
2022/07/15 07:46:32;;;;;;;;;;;;;;;24.74;33.04;96777.41;4958992;28;20433;-74
2022/07/15 07:48:58;;;;;;;;;;;;;;;24.59;30.42;96765.13;4957644;29;20337;-74
2022/07/15 07:51:24;;;;;;;;;;;;;;;24.56;33.87;96777.25;4959193;29;20062;-75
2022/07/15 07:53:50;;;;;;;;;;;;;;;24.35;32.53;96778.75;4959094;29;19997;-74
2022/07/15 07:56:16;;;;;;;;;;;;;;;24.36;32.87;96770.41;4958558;28;19962;-74
2022/07/15 07:58:42;;;;;;;;;;;;;;;24.50;32.78;96779.25;4958904;29;20008;-74
2022/07/15 08:01:08;;;;;;;;;;;;;;;24.50;30.99;96771.19;4958630;29;20310;-75
2022/07/15 08:03:34;;;;;;;;;;;;;;;24.45;31.87;96773.97;4959281;29;19971;-74
2022/07/15 08:06:00;;;;;;;;;;;;;;;24.35;31.31;96768.81;4959012;29;19958;-74
2022/07/15 08:08:26;;;;;;;;;;;;;;;24.41;33.85;96781.00;4958501;29;20059;-75
2022/07/15 08:10:53;;;;;;;;;;;;;;;24.47;33.09;96773.69;4958624;29;19959;-76
2022/07/15 08:13:20;;;;;;;;;;;;;;;24.63;32.94;96772.31;4958616;29;19966;-75
2022/07/15 08:15:46;;;;;;;;;;;;;;;24.82;32.29;96771.34;4958906;29;19960;-74
2022/07/15 08:18:12;;;;;;;;;;;;;;;24.95;32.79;96769.72;4958502;29;19974;-75
2022/07/15 08:20:38;;;;;;;;;;;;;;;25.09;32.95;96765.09;4958252;29;19991;-75
2022/07/15 08:23:04;;;;;;;;;;;;;;;25.09;29.75;96762.41;4958491;29;19956;-74
2022/07/15 08:25:32;;;;;;;;;;;;;;;24.94;31.64;96770.81;4958366;29;19969;-74
2022/07/15 08:27:59;;;;;;;;;;;;;;;24.86;31.95;96777.69;4958170;29;19956;-75
2022/07/15 08:30:29;;;;;;;;;;;;;;;24.78;31.89;96768.50;4958059;28;20405;-75
2022/07/15 08:32:56;;;;;;;;;;;;;;;24.96;33.83;96765.94;4958200;29;19984;-74
2022/07/15 08:35:22;;;;;;;;;;;;;;;25.15;32.73;96763.09;4958259;29;19967;-74
2022/07/15 08:37:48;;;;;;;;;;;;;;;25.03;31.82;96756.41;4958021;29;19977;-75
2022/07/15 08:40:15;;;;;;;;;;;;;;;24.91;32.26;96769.56;4958162;29;19962;-75
2022/07/15 08:42:43;;;;;;;;;;;;;;;24.76;30.57;96756.47;4958192;29;19964;-75
2022/07/15 08:45:10;;;;;;;;;;;;;;;24.65;31.67;96761.25;4958029;29;19962;-75
2022/07/15 08:47:37;;;;;;;;;;;;;;;24.50;31.28;96763.16;4958135;29;19958;-75
2022/07/15 08:50:04;;;;;;;;;;;;;;;24.40;31.37;96766.03;4957982;29;20427;-74
2022/07/15 08:52:32;;;;;;;;;;;;;;;24.43;32.26;96761.97;4957952;29;19961;-74
2022/07/15 08:54:58;;;;;;;;;;;;;;;24.63;33.60;96774.16;4957645;29;19986;-75
2022/07/15 08:57:24;;;;;;;;;;;;;;;24.79;32.62;96762.03;4957142;29;20483;-74
2022/07/15 08:59:51;;;;;;;;;;;;;;;25.00;32.46;96764.25;4957854;29;19969;-75
2022/07/15 09:02:20;;;;;;;;;;;;;;;25.13;32.24;96768.78;4957843;29;19957;-74
2022/07/15 09:05:04;;;;;;;;;;;;;;;25.28;32.33;96763.09;4957549;29;19958;-75
2022/07/15 09:07:49;;;;;;;;;;;;;;;25.45;32.34;96772.34;4957922;29;19953;-75
2022/07/15 09:10:14;;;;;;;;;;;;;;;25.59;32.55;96773.06;4957485;29;19954;-75
2022/07/15 09:12:42;;;;;;;;;;;;;;;25.67;32.36;96766.94;4957542;29;19997;-75
2022/07/15 09:15:07;;;;;;;;;;;;;;;25.65;32.12;96766.47;4957465;29;19967;-74
2022/07/15 09:17:34;;;;;;;;;;;;;;;25.58;31.91;96771.50;4957369;29;20004;-75
2022/07/15 09:20:03;;;;;;;;;;;;;;;25.57;32.22;96774.47;4957103;29;19988;-75
2022/07/15 09:22:30;;;;;;;;;;;;;;;25.62;31.56;96766.28;4957456;29;19961;-74
2022/07/15 09:25:05;;;;;;;;;;;;;;;25.69;31.97;96774.72;4957905;29;20431;-75
2022/07/15 09:27:33;;;;;;;;;;;;;;;25.76;32.17;96768.91;4957123;29;19967;-75
2022/07/15 09:36:04;;;;;;;;;;;;;;;25.91;31.23;96773.91;4957463;29;19954;-75
2022/07/15 09:38:31;;;;;;;;;;;;;;;25.94;30.94;96767.13;4956958;29;19979;-75
2022/07/15 09:40:57;;;;;;;;;;;;;;;25.99;31.63;96780.44;4956631;28;19965;-75
2022/07/15 09:43:23;;;;;;;;;;;;;;;25.94;30.62;96784.03;4956505;29;19957;-75
2022/07/15 09:45:59;;;;;;;;;;;;;;;25.85;31.80;96778.59;4957000;29;20353;-75
2022/07/15 09:48:28;;;;;;;;;;;;;;;25.88;31.40;96777.19;4945883;29;19956;-75
2022/07/15 09:51:00;;;;;;;;;;;;;;;25.91;31.39;96779.28;4956650;29;19963;-76
2022/07/15 09:53:26;;;;;;;;;;;;;;;25.84;31.48;96768.16;4956629;29;20327;-75
2022/07/15 09:55:52;;;;;;;;;;;;;;;25.70;31.67;96771.72;4956402;28;20434;-74
2022/07/15 09:58:19;;;;;;;;;;;;;;;25.63;32.42;96778.63;4956828;29;19975;-74
2022/07/15 10:00:45;;;;;;;;;;;;;;;25.60;32.38;96774.66;4956669;29;19960;-75
2022/07/15 10:03:11;;;;;;;;;;;;;;;25.59;31.55;96766.91;4956438;29;20403;-75
2022/07/15 10:05:38;;;;;;;;;;;;;;;25.61;31.98;96759.34;4956591;29;19985;-74
2022/07/15 10:08:06;;;;;;;;;;;;;;;25.66;30.99;96751.13;4956488;29;19955;-75
2022/07/15 10:10:32;;;;;;;;;;;;;;;25.61;31.10;96756.66;4956241;29;19970;-76
2022/07/15 10:12:58;;;;;;;;;;;;;;;25.43;31.37;96753.06;4956611;29;19973;-75
2022/07/15 10:15:41;;;;;;;;;;;;;;;25.12;31.45;96753.78;4956433;28;19962;-75
2022/07/15 10:18:16;;;;;;;;;;;;;;;24.90;32.15;96751.84;4956107;29;19970;-74
2022/07/15 10:21:02;;;;;;;;;;;;;;;25.00;32.86;96753.53;4956060;29;20472;-74
2022/07/15 10:23:38;;;;;;;;;;;;;;;24.96;32.02;96745.28;4956146;29;19970;-74
2022/07/15 10:26:23;;;;;;;;;;;;;;;25.06;31.09;96745.03;4956366;29;19963;-74
2022/07/15 10:28:48;;;;;;;;;;;;;;;25.31;32.28;96741.00;4943074;29;20033;-75
2022/07/15 10:31:16;;;;;;;;;;;;;;;25.55;31.23;96739.09;4955895;29;19958;-74
2022/07/15 10:33:42;;;;;;;;;;;;;;;25.75;31.61;96738.56;4955925;29;19990;-75
2022/07/15 10:36:08;;;;;;;;;;;;;;;25.79;30.81;96728.78;4955950;29;19966;-74
2022/07/15 10:38:35;;;;;;;;;;;;;;;25.71;30.26;96722.25;4956133;29;19984;-75
2022/07/15 10:41:12;;;;;;;;;;;;;;;25.75;32.46;96727.03;4955820;29;20340;-74
2022/07/15 10:43:45;;;;;;;;;;;;;;;26.01;32.04;96721.78;4946600;29;19969;-74
2022/07/15 10:46:20;;;;;;;;;;;;;;;26.23;29.91;96716.31;4955865;29;19956;-75
2022/07/15 10:48:48;;;;;;;;;;;;;;;26.43;30.48;96720.31;4956006;29;19974;-75
2022/07/15 10:51:33;;;;;;;;;;;;;;;26.58;30.16;96712.94;4955754;29;19967;-75
2022/07/15 10:53:59;;;;;;;;;;;;;;;26.71;29.98;96720.06;4947200;29;19974;-75
2022/07/15 10:56:34;;;;;;;;;;;;;;;26.80;30.52;96710.09;4955630;29;20332;-75
2022/07/15 10:59:07;;;;;;;;;;;;;;;26.80;30.55;96706.63;4955091;29;19979;-76
2022/07/15 11:01:33;;;;;;;;;;;;;;;26.85;31.08;96704.53;4955821;29;19970;-75
2022/07/15 11:04:22;;;;;;;;;;;;;;;26.78;30.65;96695.38;4954510;29;20360;-75
2022/07/15 11:07:10;;;;;;;;;;;;;;;26.87;30.90;96698.84;4947832;28;20320;-75
2022/07/15 11:09:45;;;;;;;;;;;;;;;26.98;30.09;96693.94;4955837;29;19967;-75
2022/07/15 11:12:11;;;;;;;;;;;;;;;26.94;29.69;96696.47;4947349;29;19964;-75
2022/07/15 11:14:52;;;;;;;;;;;;;;;26.88;29.99;96701.25;4955382;29;19971;-75
2022/07/15 11:17:20;;;;;;;;;;;;;;;26.71;30.60;96691.28;4955435;29;20415;-75
2022/07/15 11:19:48;;;;;;;;;;;;;;;26.62;31.27;96708.50;4955282;29;19975;-74
2022/07/15 11:22:15;;;;;;;;;;;;;;;26.52;30.77;96686.16;4955532;29;19968;-75
2022/07/15 11:24:41;;;;;;;;;;;;;;;26.54;30.84;96693.91;4955356;29;19991;-74
2022/07/15 11:27:09;;;;;;;;;;;;;;;26.67;31.21;96700.28;4955537;29;20408;-74
2022/07/15 11:29:41;;;;;;;;;;;;;;;26.86;30.56;96683.84;4955425;29;20060;-75
2022/07/15 11:32:07;;;;;;;;;;;;;;;27.02;30.63;96678.72;4955533;29;19972;-75
2022/07/15 11:34:42;;;;;;;;;;;;;;;27.25;31.03;96690.13;4955724;29;19968;-76
2022/07/15 11:37:10;;;;;;;;;;;;;;;27.51;30.64;96687.38;4955380;29;19966;-75
2022/07/15 11:39:37;;;;;;;;;;;;;;;27.70;29.78;96681.63;4955163;29;19983;-75
2022/07/15 11:44:48;;;;;;;;;;;;;;;27.80;28.44;96677.75;4942559;29;19965;-75
2022/07/15 11:47:14;;;;;;;;;;;;;;;27.86;30.05;96682.66;4955340;29;19965;-75
2022/07/15 11:49:41;;;;;;;;;;;;;;;27.75;27.83;96676.03;4955154;29;20319;-76
2022/07/15 11:52:08;;;;;;;;;;;;;;;27.37;29.42;96687.56;4955693;29;19963;-75
2022/07/15 11:54:35;;;;;;;;;;;;;;;27.26;30.13;96691.72;4955135;29;19955;-76
2022/07/15 11:57:03;;;;;;;;;;;;;;;27.45;30.94;96688.66;4954965;28;19966;-75
2022/07/15 11:59:29;;;;;;;;;;;;;;;27.26;28.37;96670.97;4955227;29;20373;-75
2022/07/15 12:02:06;;;;;;;;;;;;;;;27.05;29.91;96689.66;4955117;29;19966;-76
2022/07/15 12:04:32;;;;;;;;;;;;;;;26.67;28.65;96676.88;4955420;28;19968;-75
2022/07/15 12:06:58;;;;;;;;;;;;;;;26.45;28.89;96680.44;4958731;29;19965;-76
2022/07/15 12:09:24;;;;;;;;;;;;;;;26.37;30.11;96683.13;4957398;29;19952;-75
2022/07/15 12:11:50;;;;;;;;;;;;;;;26.08;30.01;96677.22;4958909;29;19965;-76
2022/07/15 12:14:20;;;;;;;;;;;;;;;26.12;30.06;96680.88;4958557;29;19963;-75
2022/07/15 12:16:47;;;;;;;;;;;;;;;26.17;31.39;96690.69;4958543;29;19961;-76
2022/07/15 12:19:15;;;;;;;;;;;;;;;26.22;31.59;96679.78;4958003;28;19991;-76
2022/07/15 12:21:42;;;;;;;;;;;;;;;26.22;31.29;96682.47;4958933;29;20321;-75
2022/07/15 12:24:15;;;;;;;;;;;;;;;26.20;31.56;96683.88;4959005;29;19961;-75
2022/07/15 12:26:44;;;;;;;;;;;;;;;26.15;31.64;96686.75;4946426;29;19976;-76
2022/07/15 12:29:11;;;;;;;;;;;;;;;26.09;31.36;96684.19;4958250;29;19960;-75
2022/07/15 12:31:38;;;;;;;;;;;;;;;26.13;31.20;96687.81;4958197;29;20419;-75
2022/07/15 12:34:04;;;;;;;;;;;;;;;26.15;30.27;96676.78;4958071;29;19964;-76
2022/07/15 12:36:32;;;;;;;;;;;;;;;26.08;31.35;96689.84;4958426;29;20000;-75
2022/07/15 12:39:08;;;;;;;;;;;;;;;25.98;31.81;96690.16;4956848;29;19967;-75
2022/07/15 12:41:35;;;;;;;;;;;;;;;25.97;32.35;96696.63;4958389;29;20409;-75
2022/07/15 12:44:02;;;;;;;;;;;;;;;26.13;31.52;96703.94;4953266;29;20308;-75
2022/07/15 12:46:53;;;;;;;;;;;;;;;26.12;31.68;96705.06;4953144;29;19962;-75
2022/07/15 12:49:38;;;;;;;;;;;;;;;26.13;31.48;96695.09;4950766;29;20367;-75
2022/07/15 12:52:24;;;;;;;;;;;;;;;26.18;31.98;96688.78;4958048;29;19966;-75
2022/07/15 12:54:52;;;;;;;;;;;;;;;26.04;31.12;96687.03;4957981;29;20336;-75
2022/07/15 12:57:27;;;;;;;;;;;;;;;26.20;31.68;96697.34;4957706;28;19958;-75
2022/07/15 12:59:55;;;;;;;;;;;;;;;26.55;32.27;96690.13;4958106;29;19993;-75